createdAt,value
2023-02-23T00:01:28.668Z,100080.31
2023-02-23T00:02:53.420Z,100074.13
2023-02-23T00:04:16.153Z,100067.84
2023-02-23T00:05:38.205Z,100093.63
2023-02-23T00:07:02.525Z,100086.88
2023-02-23T00:08:26.561Z,100085.06
2023-02-23T00:09:51.988Z,100084.94
2023-02-23T00:11:14.541Z,100085.06
2023-02-23T00:12:38.971Z,100076.66
2023-02-23T00:14:03.209Z,100081.69
2023-02-23T00:15:28.361Z,100062.78
2023-02-23T00:16:54.786Z,100068.94
2023-02-23T00:18:18.852Z,100084.34
2023-02-23T00:19:44.081Z,100087.00
2023-02-23T00:21:06.456Z,100064.75
2023-02-23T00:22:29.149Z,100074.97
2023-02-23T00:23:54.481Z,100077.78
2023-02-23T00:25:18.826Z,100073.44
2023-02-23T00:26:45.559Z,100056.47
2023-02-23T00:28:07.716Z,100073.69
2023-02-23T00:29:35.575Z,100074.69
2023-02-23T00:31:01.984Z,100071.31
2023-02-23T00:32:25.311Z,100069.75
2023-02-23T00:33:51.816Z,100071.72
2023-02-23T00:35:33.472Z,100067.66
2023-02-23T00:36:58.682Z,100064.28
2023-02-23T00:38:29.313Z,100056.16
2023-02-23T00:39:56.790Z,100062.75
2023-02-23T00:41:21.103Z,100059.94
2023-02-23T00:42:47.028Z,100064.69
2023-02-23T00:44:10.074Z,100070.72
2023-02-23T00:45:34.089Z,100069.91
2023-02-23T00:46:55.655Z,100061.91
2023-02-23T00:48:17.905Z,100069.03
2023-02-23T00:49:45.124Z,100062.88
2023-02-23T00:51:06.595Z,100071.84
2023-02-23T00:52:29.229Z,100065.69
2023-02-23T00:53:54.931Z,100056.41
2023-02-23T00:55:18.657Z,100060.78
2023-02-23T00:56:40.696Z,100067.47
2023-02-23T00:58:04.554Z,100061.72
2023-02-23T00:59:29.870Z,100045.75
2023-02-23T01:00:53.446Z,100061.59
2023-02-23T01:02:17.277Z,100063.44
2023-02-23T01:03:40.044Z,100062.00
2023-02-23T01:05:04.552Z,100060.19
2023-02-23T01:06:27.092Z,100055.69
2023-02-23T01:07:49.743Z,100042.97
2023-02-23T01:09:17.251Z,100060.59
2023-02-23T01:10:53.393Z,100037.47
2023-02-23T01:12:19.792Z,100045.19
2023-02-23T01:13:45.107Z,100040.25
2023-02-23T01:15:16.597Z,100062.41
2023-02-23T01:16:40.207Z,100053.72
2023-02-23T01:18:05.129Z,100053.03
2023-02-23T01:19:29.677Z,100062.38
2023-02-23T01:20:53.247Z,100052.72
2023-02-23T01:22:18.382Z,100037.28
2023-02-23T01:23:43.321Z,100053.84
2023-02-23T01:25:06.270Z,100061.00
2023-02-23T01:26:28.611Z,100060.41
2023-02-23T01:27:53.907Z,100061.38
2023-02-23T01:29:18.670Z,100056.34
2023-02-23T01:32:27.584Z,100039.75
2023-02-23T01:34:01.873Z,100045.66
2023-02-23T01:35:28.825Z,100047.22
2023-02-23T01:36:56.178Z,100050.56
2023-02-23T01:38:25.088Z,100046.06
2023-02-23T01:39:54.940Z,100048.31
2023-02-23T01:41:20.515Z,100042.28
2023-02-23T01:42:46.757Z,100048.19
2023-02-23T01:44:31.454Z,100043.97
2023-02-23T01:45:58.189Z,100048.44
2023-02-23T01:47:20.628Z,100045.50
2023-02-23T01:48:46.696Z,100037.09
2023-02-23T01:50:11.870Z,100043.69
2023-02-23T01:51:39.150Z,100039.47
2023-02-23T01:53:08.675Z,100023.38
2023-02-23T01:54:36.531Z,100038.53
2023-02-23T01:56:02.711Z,100036.81
2023-02-23T01:57:25.330Z,100033.22
2023-02-23T01:58:55.648Z,100029.84
2023-02-23T02:00:20.286Z,100034.16
2023-02-23T02:01:46.090Z,100018.34
2023-02-23T02:03:17.924Z,100036.00
2023-02-23T02:04:47.287Z,100031.78
2023-02-23T02:06:14.435Z,100028.56
2023-02-23T02:07:39.971Z,100024.19
2023-02-23T02:09:10.827Z,100030.13
2023-02-23T02:10:50.825Z,100010.75
2023-02-23T02:12:15.068Z,100021.53
2023-02-23T02:13:38.527Z,100021.53
2023-02-23T02:15:02.308Z,100020.00
2023-02-23T02:16:46.950Z,100025.31
2023-02-23T02:18:18.827Z,100018.34
2023-02-23T02:20:26.656Z,100019.28
2023-02-23T02:22:27.432Z,100009.47
2023-02-23T02:24:12.284Z,100016.91
2023-02-23T02:26:08.319Z,100006.09
2023-02-23T02:27:48.120Z,100014.78
2023-02-23T02:29:47.440Z,100021.06
2023-02-23T02:31:39.403Z,99999.75
2023-02-23T02:33:48.354Z,100009.75
2023-02-23T02:36:00.908Z,99999.06
2023-02-23T02:37:43.442Z,100010.16
2023-02-23T02:39:17.624Z,100012.94
2023-02-23T02:40:53.532Z,100011.25
2023-02-23T02:42:27.144Z,100007.72
2023-02-23T02:43:55.423Z,100015.59
2023-02-23T02:45:31.370Z,99999.91
2023-02-23T02:46:59.758Z,100011.25
2023-02-23T02:48:33.714Z,100011.25
2023-02-23T02:50:03.144Z,100008.72
2023-02-23T02:51:36.889Z,100014.16
2023-02-23T02:53:06.098Z,100009.81
2023-02-23T02:54:32.954Z,100000.84
2023-02-23T02:55:59.906Z,100003.50
2023-02-23T02:57:26.691Z,99998.03
2023-02-23T02:58:51.064Z,100014.31
2023-02-23T03:00:37.211Z,100007.28
2023-02-23T03:02:19.649Z,99988.53
2023-02-23T03:04:03.967Z,100009.00
2023-02-23T03:05:48.265Z,100000.31
2023-02-23T03:07:34.874Z,100000.56
2023-02-23T03:09:22.606Z,100011.91
2023-02-23T03:11:22.382Z,100012.03
2023-02-23T03:13:18.894Z,100005.44
2023-02-23T03:15:09.176Z,100006.56
2023-02-23T03:16:58.088Z,100005.97
2023-02-23T03:18:51.128Z,100005.00
2023-02-23T03:20:37.790Z,100007.91
2023-02-23T03:22:25.965Z,100006.13
2023-02-23T03:24:12.678Z,100002.59
2023-02-23T03:26:29.174Z,100002.75
2023-02-23T03:28:19.310Z,100001.91
2023-02-23T03:30:05.835Z,99997.44
2023-02-23T03:31:56.158Z,100001.03
2023-02-23T03:33:42.683Z,100001.75
2023-02-23T03:35:28.238Z,100005.25
2023-02-23T03:37:13.972Z,99981.88
2023-02-23T03:38:58.790Z,99994.50
2023-02-23T03:40:40.535Z,99999.81
2023-02-23T03:42:26.725Z,99999.69
2023-02-23T03:44:12.077Z,99997.88
2023-02-23T03:45:59.555Z,99995.06
2023-02-23T03:47:43.665Z,99992.56
2023-02-23T03:49:28.750Z,100002.91
2023-02-23T03:51:13.053Z,99993.97
2023-02-23T03:53:00.360Z,100001.94
2023-02-23T03:54:46.285Z,100001.25
2023-02-23T03:56:29.813Z,99998.59
2023-02-23T03:58:16.929Z,100000.25
2023-02-23T04:00:06.271Z,99991.56
2023-02-23T04:01:58.724Z,100000.66
2023-02-23T04:03:42.001Z,100003.31
2023-02-23T04:05:28.197Z,99995.47
2023-02-23T04:07:08.793Z,99995.59
2023-02-23T04:08:56.188Z,99999.25
2023-02-23T04:10:36.137Z,99987.47
2023-02-23T04:12:22.520Z,99989.72
2023-02-23T04:13:54.896Z,99984.94
2023-02-23T04:15:23.199Z,99988.16
2023-02-23T04:16:45.570Z,99987.19
2023-02-23T04:18:09.245Z,99986.34
2023-02-23T04:19:31.745Z,99993.47
2023-02-23T04:20:54.260Z,99987.31
2023-02-23T04:22:30.904Z,99982.16
2023-02-23T04:24:41.846Z,99983.69
2023-02-23T04:26:05.377Z,99989.84
2023-02-23T04:27:36.957Z,99987.31
2023-02-23T04:29:24.621Z,99967.00
2023-02-23T04:31:34.445Z,99983.81
2023-02-23T04:33:04.563Z,99984.81
2023-02-23T04:40:27.321Z,99986.03
2023-02-23T04:42:04.050Z,99972.31
2023-02-23T04:43:26.802Z,99970.03
2023-02-23T04:44:49.664Z,99967.50
2023-02-23T04:46:53.267Z,99962.34
2023-02-23T04:48:18.512Z,99978.72
2023-02-23T04:49:44.196Z,99977.88
2023-02-23T04:51:20.547Z,99980.16
2023-02-23T04:52:42.683Z,99982.81
2023-02-23T04:54:08.930Z,99974.69
2023-02-23T04:55:36.706Z,99982.53
2023-02-23T04:57:15.330Z,99975.69
2023-02-23T04:59:13.451Z,99982.53
2023-02-23T05:00:39.514Z,99974.41
2023-02-23T05:03:41.488Z,99969.25
2023-02-23T05:05:08.810Z,99984.22
2023-02-23T05:06:34.236Z,99969.75
2023-02-23T05:11:06.615Z,99985.31
2023-02-23T05:12:39.226Z,99972.41
2023-02-23T05:14:23.660Z,99977.63
2023-02-23T05:15:51.871Z,99961.50
2023-02-23T05:17:20.931Z,99971.31
2023-02-23T05:19:10.927Z,99974.13
2023-02-23T05:20:35.091Z,99970.88
2023-02-23T05:22:05.909Z,99962.06
2023-02-23T05:23:50.300Z,99964.00
2023-02-23T05:25:32.082Z,99967.38
2023-02-23T05:27:24.108Z,99971.59
2023-02-23T05:28:48.053Z,99974.13
2023-02-23T05:30:12.227Z,99963.78
2023-02-23T05:32:45.341Z,99973.28
2023-02-23T05:34:37.754Z,99953.94
2023-02-23T05:35:59.950Z,99950.28
2023-02-23T05:37:40.914Z,99970.75
2023-02-23T05:39:04.194Z,99978.44
2023-02-23T05:40:45.717Z,99982.81
2023-02-23T05:42:26.359Z,99974.97
2023-02-23T05:44:20.587Z,99976.38
2023-02-23T05:45:52.592Z,99956.88
2023-02-23T05:49:09.298Z,99967.72
2023-02-23T05:50:54.965Z,99965.88
2023-02-23T05:52:19.386Z,99976.97
2023-02-23T05:53:59.940Z,99960.13
2023-02-23T05:55:27.157Z,99976.84
2023-02-23T05:56:51.660Z,99965.06
2023-02-23T06:01:42.211Z,99981.03
2023-02-23T06:12:42.849Z,99972.81
2023-02-23T06:14:17.763Z,99971.97
2023-02-23T06:15:42.123Z,99972.22
2023-02-23T06:17:24.798Z,99969.03
2023-02-23T06:18:47.897Z,99973.25
2023-02-23T06:20:18.652Z,99970.19
2023-02-23T06:21:45.757Z,99953.53
2023-02-23T06:23:39.373Z,99975.28
2023-02-23T06:25:13.019Z,99970.09
2023-02-23T06:26:39.906Z,99978.81
2023-02-23T06:30:20.809Z,99961.03
2023-02-23T06:31:43.240Z,99971.28
2023-02-23T06:33:09.073Z,99976.19
2023-02-23T06:34:34.591Z,99977.78
2023-02-23T06:35:57.341Z,99962.94
2023-02-23T06:37:21.544Z,99966.03
2023-02-23T06:38:45.302Z,99969.25
2023-02-23T06:40:08.346Z,99965.22
2023-02-23T06:41:39.660Z,99982.59
2023-02-23T06:43:04.747Z,99974.34
2023-02-23T06:44:48.410Z,99972.13
2023-02-23T06:46:24.897Z,99959.94
2023-02-23T06:47:54.366Z,99965.69
2023-02-23T06:49:27.096Z,99964.97
2023-02-23T06:50:55.720Z,99965.81
2023-02-23T06:52:26.468Z,99965.13
2023-02-23T06:54:05.653Z,99957.44
2023-02-23T06:55:55.620Z,99973.41
2023-02-23T06:57:23.244Z,99967.91
2023-02-23T06:58:54.689Z,99980.13
2023-02-23T07:00:53.606Z,99982.34
2023-02-23T07:02:41.539Z,99978.97
2023-02-23T07:04:27.195Z,99969.56
2023-02-23T07:10:50.094Z,99966.47
2023-02-23T07:12:18.897Z,99968.44
2023-02-23T07:13:54.672Z,99969.81
2023-02-23T07:21:35.739Z,99974.81
2023-02-23T07:25:33.673Z,99956.69
2023-02-23T07:27:06.061Z,99951.75
2023-02-23T07:30:58.342Z,99960.28
2023-02-23T07:32:37.968Z,99954.13
2023-02-23T07:37:39.472Z,99952.63
2023-02-23T07:39:26.130Z,99959.59
2023-02-23T07:41:01.713Z,99954.53
2023-02-23T07:42:27.576Z,99969.38
2023-02-23T07:46:40.505Z,99948.47
2023-02-23T07:51:30.101Z,99933.22
2023-02-23T07:53:03.279Z,99947.50
2023-02-23T07:54:43.429Z,99944.28
2023-02-23T07:56:27.747Z,99941.88
2023-02-23T07:57:54.188Z,99946.09
2023-02-23T07:59:19.638Z,99937.94
2023-02-23T08:00:45.729Z,99937.38
2023-02-23T08:02:15.426Z,99950.13
2023-02-23T08:03:49.265Z,99927.44
2023-02-23T08:05:19.940Z,99923.81
2023-02-23T08:07:07.257Z,99938.25
2023-02-23T08:08:31.063Z,99935.78
2023-02-23T08:09:59.940Z,99939.16
2023-02-23T08:11:22.443Z,99934.84
2023-02-23T08:13:01.894Z,99926.66
2023-02-23T08:14:56.869Z,99929.34
2023-02-23T08:16:23.315Z,99923.56
2023-02-23T08:17:59.842Z,99944.19
2023-02-23T08:19:24.847Z,99931.44
2023-02-23T08:21:02.787Z,99935.47
2023-02-23T08:22:29.377Z,99936.97
2023-02-23T08:27:00.116Z,99941.59
2023-02-23T08:28:35.709Z,99934.03
2023-02-23T08:29:58.640Z,99942.88
2023-02-23T08:31:24.918Z,99919.88
2023-02-23T08:33:12.015Z,99930.72
2023-02-23T08:34:56.455Z,99929.63
2023-02-23T08:36:22.696Z,99936.50
2023-02-23T08:37:57.001Z,99924.19
2023-02-23T08:39:47.026Z,99930.34
2023-02-23T08:42:05.412Z,99931.91
2023-02-23T08:44:25.272Z,99925.13
2023-02-23T08:50:05.820Z,99934.56
2023-02-23T08:51:24.747Z,99924.41
2023-02-23T08:53:26.897Z,99914.94
2023-02-23T08:55:03.492Z,99922.88
2023-02-23T08:56:35.314Z,99910.69
2023-02-23T08:58:20.278Z,99910.63
2023-02-23T08:59:57.269Z,99919.53
2023-02-23T09:01:32.246Z,99913.41
2023-02-23T09:03:11.732Z,99918.16
2023-02-23T09:04:38.965Z,99910.97
2023-02-23T09:06:53.907Z,99922.97
2023-02-23T09:08:34.228Z,99915.81
2023-02-23T09:10:05.129Z,99907.13
2023-02-23T09:11:34.026Z,99907.81
2023-02-23T09:13:10.867Z,99917.19
2023-02-23T09:14:54.058Z,99901.75
2023-02-23T09:16:19.444Z,99909.94
2023-02-23T09:18:01.859Z,99910.00
2023-02-23T09:19:34.013Z,99905.75
2023-02-23T09:23:08.407Z,99915.53
2023-02-23T09:24:31.424Z,99911.88
2023-02-23T09:26:09.956Z,99921.06
2023-02-23T09:27:40.991Z,99899.22
2023-02-23T09:29:06.496Z,99908.38
2023-02-23T09:30:42.532Z,99897.97
2023-02-23T09:32:18.162Z,99902.16
2023-02-23T09:34:17.700Z,99911.50
2023-02-23T09:35:43.492Z,99901.94
2023-02-23T09:37:10.081Z,99886.38
2023-02-23T09:38:32.886Z,99895.56
2023-02-23T09:39:58.149Z,99900.56
2023-02-23T09:41:58.526Z,99894.34
2023-02-23T09:43:31.018Z,99903.50
2023-02-23T09:45:05.885Z,99893.91
2023-02-23T09:46:37.306Z,99883.53
2023-02-23T09:48:35.564Z,99893.91
2023-02-23T09:50:06.863Z,99893.72
2023-02-23T09:51:32.591Z,99892.28
2023-02-23T09:53:07.883Z,99885.59
2023-02-23T09:54:39.219Z,99895.34
2023-02-23T09:56:22.101Z,99889.31
2023-02-23T09:58:04.666Z,99888.88
2023-02-23T09:59:29.425Z,99891.53
2023-02-23T10:01:12.981Z,99886.94
2023-02-23T10:02:41.010Z,99886.25
2023-02-23T10:04:26.128Z,99879.16
2023-02-23T10:05:59.042Z,99890.78
2023-02-23T10:07:24.583Z,99890.31
2023-02-23T10:08:52.775Z,99890.56
2023-02-23T10:10:28.235Z,99885.97
2023-02-23T10:12:12.194Z,99889.56
2023-02-23T10:13:46.867Z,99887.53
2023-02-23T10:15:25.131Z,99893.81
2023-02-23T10:16:59.285Z,99891.34
2023-02-23T10:18:48.612Z,99880.34
2023-02-23T10:20:24.791Z,99881.19
2023-02-23T10:21:57.515Z,99881.78
2023-02-23T10:23:31.416Z,99873.50
2023-02-23T10:25:06.657Z,99878.09
2023-02-23T10:26:36.739Z,99861.44
2023-02-23T10:28:06.851Z,99883.66
2023-02-23T10:29:34.090Z,99869.53
2023-02-23T10:30:59.472Z,99871.59
2023-02-23T10:32:31.729Z,99873.22
2023-02-23T10:34:01.974Z,99862.34
2023-02-23T10:35:29.447Z,99857.16
2023-02-23T10:37:19.808Z,99861.28
2023-02-23T10:38:57.661Z,99849.34
2023-02-23T10:40:24.168Z,99863.66
2023-02-23T10:41:53.795Z,99860.28
2023-02-23T10:43:18.231Z,99858.59
2023-02-23T10:44:57.737Z,99851.22
2023-02-23T10:46:42.358Z,99860.34
2023-02-23T10:48:09.219Z,99849.44
2023-02-23T10:49:40.698Z,99858.38
2023-02-23T10:51:13.148Z,99853.31
2023-02-23T10:52:43.994Z,99853.47
2023-02-23T10:54:42.357Z,99845.13
2023-02-23T10:56:10.912Z,99836.91
2023-02-23T10:57:40.552Z,99845.63
2023-02-23T10:59:03.629Z,99843.31
2023-02-23T11:00:40.237Z,99835.38
2023-02-23T11:02:25.674Z,99838.81
2023-02-23T11:04:05.438Z,99831.78
2023-02-23T11:05:44.858Z,99840.25
2023-02-23T11:07:16.511Z,99820.50
2023-02-23T11:08:41.501Z,99826.50
2023-02-23T11:10:33.061Z,99822.94
2023-02-23T11:12:00.771Z,99825.25
2023-02-23T11:13:23.997Z,99818.16
2023-02-23T11:14:47.281Z,99820.50
2023-02-23T11:16:15.831Z,99807.78
2023-02-23T11:17:40.024Z,99826.97
2023-02-23T11:19:07.580Z,99824.09
2023-02-23T11:20:35.881Z,99817.84
2023-02-23T11:22:06.060Z,99808.75
2023-02-23T11:23:31.689Z,99801.13
2023-02-23T11:24:59.782Z,99811.75
2023-02-23T11:26:33.245Z,99803.06
2023-02-23T11:27:57.217Z,99811.81
2023-02-23T11:29:28.116Z,99799.16
2023-02-23T11:31:02.186Z,99795.47
2023-02-23T11:32:44.539Z,99797.94
2023-02-23T11:34:11.772Z,99781.59
2023-02-23T11:35:38.606Z,99807.81
2023-02-23T11:37:06.493Z,99792.72
2023-02-23T11:39:17.812Z,99788.38
2023-02-23T11:41:12.902Z,99789.84
2023-02-23T11:42:55.298Z,99792.19
2023-02-23T11:44:23.759Z,99781.41
2023-02-23T11:45:51.460Z,99788.69
2023-02-23T11:47:20.872Z,99786.63
2023-02-23T11:48:51.583Z,99787.28
2023-02-23T11:50:23.954Z,99784.41
2023-02-23T11:51:51.539Z,99786.47
2023-02-23T11:53:20.570Z,99784.81
2023-02-23T11:55:24.446Z,99781.13
2023-02-23T11:56:58.151Z,99771.56
2023-02-23T11:58:25.140Z,99763.66
2023-02-23T11:59:52.227Z,99781.34
2023-02-23T12:01:17.555Z,99771.16
2023-02-23T12:02:53.896Z,99771.63
2023-02-23T12:04:30.629Z,99761.47
2023-02-23T12:05:57.671Z,99769.41
2023-02-23T12:07:46.736Z,99769.63
2023-02-23T12:09:20.954Z,99764.28
2023-02-23T12:10:46.061Z,99758.09
2023-02-23T12:12:51.685Z,99747.88
2023-02-23T12:14:27.185Z,99757.31
2023-02-23T12:16:00.024Z,99761.09
2023-02-23T12:18:05.593Z,99751.34
2023-02-23T12:19:50.201Z,99752.16
2023-02-23T12:23:58.011Z,99740.97
2023-02-23T12:25:53.258Z,99726.38
2023-02-23T12:27:53.065Z,99738.00
2023-02-23T12:29:43.628Z,99738.63
2023-02-23T12:31:35.942Z,99749.63
2023-02-23T12:33:16.006Z,99738.19
2023-02-23T12:34:44.403Z,99738.59
2023-02-23T12:36:18.113Z,99737.13
2023-02-23T12:37:50.831Z,99735.06
2023-02-23T12:39:24.758Z,99728.84
2023-02-23T12:40:51.099Z,99724.06
2023-02-23T12:42:20.563Z,99717.41
2023-02-23T12:43:51.531Z,99712.66
2023-02-23T12:45:24.580Z,99738.63
2023-02-23T12:46:55.001Z,99725.13
2023-02-23T12:48:30.460Z,99719.09
2023-02-23T12:49:57.452Z,99724.31
2023-02-23T12:51:27.583Z,99723.06
2023-02-23T12:52:54.802Z,99727.25
2023-02-23T12:54:18.924Z,99726.84
2023-02-23T12:56:07.978Z,99715.19
2023-02-23T12:57:50.359Z,99712.31
2023-02-23T12:59:47.669Z,99705.88
2023-02-23T13:01:22.072Z,99708.56
2023-02-23T13:02:52.050Z,99718.13
2023-02-23T13:04:34.320Z,99703.56
2023-02-23T13:06:05.592Z,99702.75
2023-02-23T13:07:44.187Z,99701.31
2023-02-23T13:09:26.507Z,99701.72
2023-02-23T13:11:09.823Z,99692.59
2023-02-23T13:12:51.593Z,99694.44
2023-02-23T13:14:19.627Z,99699.25
2023-02-23T13:15:54.541Z,99700.28
2023-02-23T13:17:33.534Z,99696.53
2023-02-23T13:19:12.711Z,99687.00
2023-02-23T13:20:42.302Z,99688.66
2023-02-23T13:22:47.573Z,99707.16
2023-02-23T13:24:38.486Z,99682.00
2023-02-23T13:26:17.682Z,99690.56
2023-02-23T13:27:51.690Z,99679.34
2023-02-23T13:29:36.321Z,99679.97
2023-02-23T13:31:17.683Z,99690.13
2023-02-23T13:32:46.234Z,99692.00
2023-02-23T13:34:22.768Z,99688.47
2023-02-23T13:35:48.291Z,99686.81
2023-02-23T13:37:13.919Z,99683.25
2023-02-23T13:38:44.980Z,99682.03
2023-02-23T13:40:43.205Z,99669.75
2023-02-23T13:42:40.402Z,99665.59
2023-02-23T13:44:11.298Z,99680.56
2023-02-23T13:46:14.929Z,99673.09
2023-02-23T13:47:55.744Z,99662.50
2023-02-23T13:49:34.976Z,99664.16
2023-02-23T13:51:29.915Z,99664.34
2023-02-23T13:53:01.463Z,99670.97
2023-02-23T13:54:32.154Z,99675.56
2023-02-23T13:56:12.844Z,99664.75
2023-02-23T13:57:37.620Z,99681.56
2023-02-23T13:59:02.569Z,99671.38
2023-02-23T14:00:35.202Z,99664.09
2023-02-23T14:02:14.203Z,99665.53
2023-02-23T14:04:12.747Z,99665.56
2023-02-23T14:06:12.868Z,99670.13
2023-02-23T14:08:48.844Z,99670.09
2023-02-23T14:10:21.905Z,99668.63
2023-02-23T14:12:06.507Z,99667.16
2023-02-23T14:14:03.441Z,99663.41
2023-02-23T14:16:24.782Z,99654.03
2023-02-23T14:17:58.311Z,99654.63
2023-02-23T14:19:42.838Z,99652.53
2023-02-23T14:21:25.000Z,99656.66
2023-02-23T14:23:28.790Z,99664.16
2023-02-23T14:26:08.220Z,99661.38
2023-02-23T14:27:45.977Z,99654.50
2023-02-23T14:29:25.565Z,99653.88
2023-02-23T14:31:00.519Z,99657.16
2023-02-23T14:33:16.430Z,99654.00
2023-02-23T14:35:01.335Z,99657.34
2023-02-23T14:36:46.948Z,99653.75
2023-02-23T14:38:29.985Z,99652.06
2023-02-23T14:40:24.780Z,99641.47
2023-02-23T14:42:08.822Z,99653.13
2023-02-23T14:43:52.259Z,99645.81
2023-02-23T14:45:32.069Z,99640.19
2023-02-23T14:47:26.656Z,99645.81
2023-02-23T14:49:01.242Z,99638.53
2023-02-23T14:52:29.878Z,99647.03
2023-02-23T14:56:09.153Z,99636.00
2023-02-23T14:57:34.233Z,99639.06
2023-02-23T14:58:58.363Z,99646.97
2023-02-23T15:00:26.040Z,99643.00
2023-02-23T15:01:57.320Z,99649.00
2023-02-23T15:03:38.720Z,99645.78
2023-02-23T15:05:38.050Z,99638.69
2023-02-23T15:07:24.412Z,99633.72
2023-02-23T15:08:57.050Z,99636.34
2023-02-23T15:10:38.584Z,99637.97
2023-02-23T15:12:27.273Z,99626.47
2023-02-23T15:13:52.443Z,99637.25
2023-02-23T15:15:23.672Z,99620.84
2023-02-23T15:16:55.469Z,99628.28
2023-02-23T15:18:23.674Z,99624.06
2023-02-23T15:19:50.943Z,99623.88
2023-02-23T15:21:23.888Z,99623.88
2023-02-23T15:22:50.293Z,99625.09
2023-02-23T15:24:40.466Z,99621.94
2023-02-23T15:26:35.629Z,99614.66
2023-02-23T15:28:32.444Z,99604.84
2023-02-23T15:29:58.076Z,99610.41
2023-02-23T15:31:21.982Z,99594.84
2023-02-23T15:32:45.092Z,99602.75
2023-02-23T15:34:12.360Z,99607.72
2023-02-23T15:36:04.659Z,99597.28
2023-02-23T15:37:39.947Z,99603.31
2023-02-23T15:39:06.770Z,99612.38
2023-02-23T15:40:40.184Z,99603.06
2023-02-23T15:42:06.308Z,99605.09
2023-02-23T15:43:35.803Z,99610.47
2023-02-23T15:45:31.637Z,99607.72
2023-02-23T15:46:57.124Z,99606.22
2023-02-23T15:48:22.952Z,99603.09
2023-02-23T15:49:47.362Z,99605.31
2023-02-23T15:51:23.096Z,99604.06
2023-02-23T15:53:00.083Z,99612.53
2023-02-23T15:54:48.117Z,99607.69
2023-02-23T15:56:24.639Z,99604.28
2023-02-23T15:57:49.594Z,99600.94
2023-02-23T16:02:06.042Z,99592.47
2023-02-23T16:06:01.321Z,99607.50
2023-02-23T16:07:26.242Z,99584.59
2023-02-23T16:09:01.069Z,99595.63
2023-02-23T16:10:30.523Z,99588.16
2023-02-23T16:11:55.333Z,99597.41
2023-02-23T16:13:31.927Z,99593.44
2023-02-23T16:15:00.678Z,99593.34
2023-02-23T16:16:32.784Z,99593.34
2023-02-23T16:18:35.540Z,99584.06
2023-02-23T16:20:09.334Z,99594.63
2023-02-23T16:21:49.786Z,99588.75
2023-02-23T16:23:45.305Z,99587.84
2023-02-23T16:25:15.311Z,99592.19
2023-02-23T16:27:09.438Z,99578.41
2023-02-23T16:35:17.869Z,99588.19
2023-02-23T16:44:56.666Z,99577.72
2023-02-23T16:46:25.836Z,99589.75
2023-02-23T16:48:09.790Z,99580.59
2023-02-23T16:49:48.691Z,99586.63
2023-02-23T16:51:26.127Z,99578.00
2023-02-23T16:52:52.097Z,99595.19
2023-02-23T16:54:19.854Z,99595.00
2023-02-23T16:55:57.410Z,99587.53
2023-02-23T16:57:32.243Z,99582.69
2023-02-23T16:59:04.134Z,99582.69
2023-02-23T17:03:24.841Z,99587.56
2023-02-23T17:04:52.440Z,99587.94
2023-02-23T17:08:58.003Z,99585.34
2023-02-23T17:12:44.004Z,99579.84
2023-02-23T17:14:08.978Z,99582.38
2023-02-23T17:16:06.329Z,99578.38
2023-02-23T17:17:36.397Z,99583.91
2023-02-23T17:19:03.839Z,99579.56
2023-02-23T17:20:27.410Z,99581.59
2023-02-23T17:21:53.383Z,99592.44
2023-02-23T17:23:22.694Z,99580.75
2023-02-23T17:28:37.836Z,99582.78
2023-02-23T17:30:05.320Z,99584.16
2023-02-23T17:31:32.240Z,99583.31
2023-02-23T17:32:58.280Z,99591.84
2023-02-23T17:35:00.316Z,99592.84
2023-02-23T17:36:19.727Z,99585.25
2023-02-23T17:37:46.299Z,99579.03
2023-02-23T17:39:40.719Z,99584.22
2023-02-23T17:41:16.431Z,99585.91
2023-02-23T17:42:42.292Z,99583.69
2023-02-23T17:44:07.978Z,99578.84
2023-02-23T17:45:39.826Z,99584.72
2023-02-23T17:47:01.974Z,99575.34
2023-02-23T17:48:25.166Z,99584.72
2023-02-23T17:49:47.667Z,99585.53
2023-02-23T17:51:12.232Z,99569.53
2023-02-23T17:52:34.005Z,99577.84
2023-02-23T17:53:59.123Z,99579.50
2023-02-23T17:55:23.865Z,99568.13
2023-02-23T17:56:46.274Z,99566.28
2023-02-23T17:58:08.552Z,99576.00
2023-02-23T17:59:32.209Z,99577.50
2023-02-23T18:00:56.739Z,99574.97
2023-02-23T18:02:27.178Z,99574.81
2023-02-23T18:03:59.804Z,99578.31
2023-02-23T18:05:23.824Z,99559.63
2023-02-23T18:06:46.159Z,99574.59
2023-02-23T18:08:16.215Z,99571.31
2023-02-23T18:09:39.065Z,99568.63
2023-02-23T18:11:03.944Z,99555.91
2023-02-23T18:12:26.404Z,99563.06
2023-02-23T18:16:33.519Z,99542.72
2023-02-23T18:17:59.518Z,99545.19
2023-02-23T18:19:33.706Z,99552.88
2023-02-23T18:21:25.418Z,99555.22
2023-02-23T18:26:27.838Z,99547.72
2023-02-23T18:27:30.870Z,99536.84
2023-02-23T18:29:24.702Z,99546.22
2023-02-23T18:31:04.150Z,99541.56
2023-02-23T18:32:40.340Z,99542.22
